createdAt,value
2022-09-28T00:01:24.247Z,34.10
2022-09-28T00:07:32.158Z,33.91
2022-09-28T00:10:00.260Z,33.97
2022-09-28T19:26:28.612Z,35.94
2022-09-28T19:28:57.672Z,36.03
2022-09-28T19:32:03.502Z,36.09
2022-09-28T19:34:33.554Z,36.01
2022-09-28T19:37:04.127Z,36.00
2022-09-28T19:39:31.352Z,35.99
2022-09-28T19:42:00.048Z,35.95
2022-09-28T19:44:29.160Z,36.00
2022-09-28T19:48:03.836Z,35.83
2022-09-28T19:50:32.158Z,36.01
2022-09-28T19:53:01.892Z,35.89
2022-09-28T19:55:36.694Z,35.87
2022-09-28T19:58:04.279Z,35.92
2022-09-28T20:00:31.551Z,35.97
2022-09-28T20:02:59.036Z,35.99
2022-09-28T20:05:26.166Z,35.84
2022-09-28T20:07:53.390Z,35.85
2022-09-28T20:10:20.535Z,35.88
2022-09-28T20:12:47.674Z,35.88
2022-09-28T20:15:14.978Z,35.96
2022-09-28T20:17:42.275Z,36.00
2022-09-28T20:20:09.425Z,36.10
2022-09-28T20:22:37.343Z,36.25
2022-09-28T20:25:04.595Z,36.32
2022-09-28T20:27:31.730Z,36.49
2022-09-28T20:29:59.896Z,36.47
2022-09-28T20:32:27.066Z,36.43
2022-09-28T20:34:56.452Z,36.41
2022-09-28T20:37:25.554Z,36.50
2022-09-28T20:39:53.637Z,36.59
2022-09-28T20:42:21.190Z,36.35
2022-09-28T20:44:48.280Z,36.35
2022-09-28T20:47:15.312Z,36.37
2022-09-28T20:49:44.878Z,36.39
2022-09-28T20:52:13.192Z,36.30
2022-09-28T20:54:40.720Z,36.22
2022-09-28T20:57:17.717Z,36.26
2022-09-28T20:59:53.635Z,36.16
2022-09-28T21:02:22.673Z,36.14
2022-09-28T21:04:49.887Z,36.02
2022-09-28T21:07:16.988Z,36.12
2022-09-28T21:09:44.081Z,36.16
2022-09-28T21:12:11.192Z,36.14
2022-09-28T21:14:38.271Z,36.01
2022-09-28T21:17:05.299Z,36.13
2022-09-28T21:19:32.400Z,35.94
2022-09-28T21:21:59.458Z,36.07
2022-09-28T21:24:26.794Z,35.90
2022-09-28T21:26:55.845Z,35.98
2022-09-28T21:29:22.898Z,35.84
2022-09-28T21:31:50.213Z,35.78
2022-09-28T21:34:19.615Z,35.74
2022-09-28T21:36:53.097Z,35.84
2022-09-28T21:39:20.605Z,35.58
2022-09-28T21:41:47.702Z,35.65
2022-09-28T21:44:14.845Z,35.62
2022-09-28T21:46:42.390Z,35.57
2022-09-28T21:49:10.624Z,35.57
2022-09-28T21:51:38.325Z,35.60
2022-09-28T21:54:06.050Z,35.52
2022-09-28T21:56:33.145Z,35.52
2022-09-28T21:59:02.690Z,35.59
2022-09-28T22:01:29.789Z,35.44
2022-09-28T22:03:57.177Z,35.44
2022-09-28T22:06:28.193Z,35.46
2022-09-28T22:08:55.725Z,35.50
2022-09-28T22:11:25.078Z,35.45
2022-09-28T22:14:00.286Z,35.51
2022-09-28T22:16:30.683Z,35.30
2022-09-28T22:18:58.930Z,35.39
2022-09-28T22:21:29.047Z,35.43
2022-09-28T22:24:01.415Z,35.35
2022-09-28T22:26:30.408Z,35.46
2022-09-28T22:29:00.351Z,35.38
2022-09-28T22:31:30.761Z,35.32
2022-09-28T22:34:07.618Z,35.26
2022-09-28T22:36:34.821Z,35.30
2022-09-28T22:39:02.770Z,35.24
2022-09-28T22:41:30.218Z,35.23
2022-09-28T22:43:57.771Z,35.32
2022-09-28T22:46:32.133Z,35.24
2022-09-28T22:49:00.155Z,35.31
2022-09-28T22:51:29.102Z,35.31
2022-09-28T22:53:59.854Z,35.07
2022-09-28T22:56:27.191Z,35.27
2022-09-28T22:58:54.833Z,35.25
2022-09-28T23:01:30.025Z,35.14
2022-09-28T23:03:58.566Z,35.10
2022-09-28T23:06:28.417Z,35.21
2022-09-28T23:08:55.724Z,35.19
2022-09-28T23:11:22.910Z,35.03
2022-09-28T23:13:51.039Z,35.00
2022-09-28T23:16:18.310Z,35.06
2022-09-28T23:18:45.491Z,34.92
2022-09-28T23:21:18.424Z,34.96
2022-09-28T23:23:46.770Z,34.94
2022-09-28T23:26:16.252Z,35.03
2022-09-28T23:28:44.021Z,35.04
2022-09-28T23:31:31.976Z,35.01
2022-09-28T23:34:01.064Z,34.96
2022-09-28T23:36:28.301Z,34.87
2022-09-28T23:38:55.597Z,34.95
2022-09-28T23:41:22.812Z,34.92
2022-09-28T23:43:49.930Z,34.73
2022-09-28T23:46:20.711Z,34.74
2022-09-28T23:48:49.156Z,34.84
2022-09-28T23:51:16.714Z,34.69
